sensor_id;sensor_type;location;lat;lon;timestamp;P1;durP1;ratioP1;P2;durP2;ratioP2
48263;SDS011;34086;51.076;13.722;2022-08-30T00:00:54;11.40;;;7.75;;
48263;SDS011;34086;51.076;13.722;2022-08-30T00:02:05;11.70;;;8.10;;
48263;SDS011;34086;51.076;13.722;2022-08-30T00:03:07;10.25;;;7.32;;
48263;SDS011;34086;51.076;13.722;2022-08-30T00:04:09;10.07;;;7.82;;
48263;SDS011;34086;51.076;13.722;2022-08-30T00:05:09;9.18;;;7.65;;
48263;SDS011;34086;51.076;13.722;2022-08-30T00:06:11;10.07;;;7.53;;
48263;SDS011;34086;51.076;13.722;2022-08-30T00:07:14;11.20;;;7.90;;
48263;SDS011;34086;51.076;13.722;2022-08-30T00:08:15;11.25;;;8.10;;
48263;SDS011;34086;51.076;13.722;2022-08-30T00:09:15;10.02;;;8.32;;
48263;SDS011;34086;51.076;13.722;2022-08-30T00:10:16;9.93;;;7.78;;
48263;SDS011;34086;51.076;13.722;2022-08-30T00:11:19;11.60;;;8.30;;
48263;SDS011;34086;51.076;13.722;2022-08-30T00:12:25;9.13;;;7.53;;
48263;SDS011;34086;51.076;13.722;2022-08-30T00:13:25;10.73;;;7.93;;
48263;SDS011;34086;51.076;13.722;2022-08-30T00:14:26;9.52;;;8.40;;
48263;SDS011;34086;51.076;13.722;2022-08-30T00:15:27;11.50;;;8.00;;
48263;SDS011;34086;51.076;13.722;2022-08-30T00:16:29;10.32;;;7.57;;
48263;SDS011;34086;51.076;13.722;2022-08-30T00:17:29;10.30;;;8.20;;
48263;SDS011;34086;51.076;13.722;2022-08-30T00:18:30;9.45;;;7.57;;
48263;SDS011;34086;51.076;13.722;2022-08-30T00:19:31;9.95;;;7.70;;
48263;SDS011;34086;51.076;13.722;2022-08-30T00:20:31;10.32;;;7.28;;
48263;SDS011;34086;51.076;13.722;2022-08-30T00:21:33;11.80;;;7.40;;
48263;SDS011;34086;51.076;13.722;2022-08-30T00:22:34;11.00;;;7.68;;
48263;SDS011;34086;51.076;13.722;2022-08-30T00:23:35;10.50;;;7.40;;
48263;SDS011;34086;51.076;13.722;2022-08-30T00:24:36;10.65;;;7.35;;
48263;SDS011;34086;51.076;13.722;2022-08-30T00:25:37;11.80;;;7.50;;
48263;SDS011;34086;51.076;13.722;2022-08-30T00:26:38;10.38;;;7.53;;
48263;SDS011;34086;51.076;13.722;2022-08-30T00:27:39;12.48;;;7.72;;
48263;SDS011;34086;51.076;13.722;2022-08-30T00:28:41;9.15;;;7.28;;
48263;SDS011;34086;51.076;13.722;2022-08-30T00:29:41;8.98;;;7.35;;
48263;SDS011;34086;51.076;13.722;2022-08-30T00:30:42;10.20;;;7.10;;
48263;SDS011;34086;51.076;13.722;2022-08-30T00:31:43;10.35;;;7.15;;
48263;SDS011;34086;51.076;13.722;2022-08-30T00:32:44;10.68;;;7.70;;
48263;SDS011;34086;51.076;13.722;2022-08-30T00:33:45;10.32;;;7.65;;
48263;SDS011;34086;51.076;13.722;2022-08-30T00:34:46;10.20;;;7.72;;
48263;SDS011;34086;51.076;13.722;2022-08-30T00:35:47;9.52;;;7.30;;
48263;SDS011;34086;51.076;13.722;2022-08-30T00:36:49;8.45;;;7.13;;
48263;SDS011;34086;51.076;13.722;2022-08-30T00:37:49;10.70;;;7.13;;
48263;SDS011;34086;51.076;13.722;2022-08-30T00:38:50;9.82;;;7.22;;
48263;SDS011;34086;51.076;13.722;2022-08-30T00:39:51;9.52;;;7.47;;
48263;SDS011;34086;51.076;13.722;2022-08-30T00:40:52;9.02;;;6.88;;
48263;SDS011;34086;51.076;13.722;2022-08-30T00:41:52;10.18;;;6.88;;
48263;SDS011;34086;51.076;13.722;2022-08-30T00:42:54;8.07;;;6.88;;
48263;SDS011;34086;51.076;13.722;2022-08-30T00:43:57;9.00;;;7.00;;
48263;SDS011;34086;51.076;13.722;2022-08-30T00:46:30;8.82;;;7.00;;
48263;SDS011;34086;51.076;13.722;2022-08-30T00:47:31;9.50;;;6.90;;
48263;SDS011;34086;51.076;13.722;2022-08-30T00:48:32;10.25;;;7.45;;
48263;SDS011;34086;51.076;13.722;2022-08-30T00:49:45;8.45;;;7.13;;
48263;SDS011;34086;51.076;13.722;2022-08-30T00:50:51;8.55;;;7.03;;
48263;SDS011;34086;51.076;13.722;2022-08-30T00:51:55;10.85;;;7.25;;
48263;SDS011;34086;51.076;13.722;2022-08-30T00:53:01;12.07;;;7.05;;
48263;SDS011;34086;51.076;13.722;2022-08-30T00:54:14;10.55;;;7.45;;
48263;SDS011;34086;51.076;13.722;2022-08-30T00:55:16;9.07;;;7.07;;
48263;SDS011;34086;51.076;13.722;2022-08-30T00:56:20;9.20;;;7.18;;
48263;SDS011;34086;51.076;13.722;2022-08-30T00:57:24;12.63;;;7.40;;
48263;SDS011;34086;51.076;13.722;2022-08-30T00:58:29;9.60;;;6.90;;
48263;SDS011;34086;51.076;13.722;2022-08-30T00:59:33;10.10;;;7.13;;
48263;SDS011;34086;51.076;13.722;2022-08-30T01:00:34;8.85;;;7.07;;
48263;SDS011;34086;51.076;13.722;2022-08-30T01:01:35;9.30;;;7.35;;
48263;SDS011;34086;51.076;13.722;2022-08-30T01:02:36;9.45;;;7.38;;
48263;SDS011;34086;51.076;13.722;2022-08-30T01:03:37;9.52;;;7.03;;
48263;SDS011;34086;51.076;13.722;2022-08-30T01:04:39;10.55;;;7.60;;
48263;SDS011;34086;51.076;13.722;2022-08-30T01:05:42;11.15;;;7.50;;
48263;SDS011;34086;51.076;13.722;2022-08-30T01:06:43;9.02;;;7.20;;
48263;SDS011;34086;51.076;13.722;2022-08-30T01:07:45;12.07;;;7.50;;
48263;SDS011;34086;51.076;13.722;2022-08-30T01:08:46;10.88;;;7.50;;
48263;SDS011;34086;51.076;13.722;2022-08-30T01:09:47;12.13;;;7.55;;
48263;SDS011;34086;51.076;13.722;2022-08-30T01:10:52;8.85;;;7.18;;
48263;SDS011;34086;51.076;13.722;2022-08-30T01:11:56;11.95;;;8.00;;
48263;SDS011;34086;51.076;13.722;2022-08-30T01:12:57;11.35;;;7.13;;
48263;SDS011;34086;51.076;13.722;2022-08-30T01:13:58;8.65;;;7.28;;
48263;SDS011;34086;51.076;13.722;2022-08-30T01:15:03;11.52;;;6.95;;
48263;SDS011;34086;51.076;13.722;2022-08-30T01:16:05;9.40;;;7.07;;
48263;SDS011;34086;51.076;13.722;2022-08-30T01:17:07;9.82;;;7.25;;
48263;SDS011;34086;51.076;13.722;2022-08-30T01:18:12;9.15;;;7.18;;
48263;SDS011;34086;51.076;13.722;2022-08-30T01:19:48;8.25;;;6.90;;
48263;SDS011;34086;51.076;13.722;2022-08-30T01:21:16;9.88;;;7.20;;
48263;SDS011;34086;51.076;13.722;2022-08-30T01:23:56;11.60;;;7.22;;
48263;SDS011;34086;51.076;13.722;2022-08-30T01:24:59;12.43;;;7.70;;
48263;SDS011;34086;51.076;13.722;2022-08-30T01:26:05;11.10;;;7.93;;
48263;SDS011;34086;51.076;13.722;2022-08-30T01:27:07;9.40;;;7.70;;
48263;SDS011;34086;51.076;13.722;2022-08-30T01:28:19;13.18;;;8.10;;
48263;SDS011;34086;51.076;13.722;2022-08-30T01:29:22;11.23;;;8.00;;
48263;SDS011;34086;51.076;13.722;2022-08-30T01:30:29;10.25;;;7.95;;
48263;SDS011;34086;51.076;13.722;2022-08-30T01:31:34;9.90;;;7.55;;
48263;SDS011;34086;51.076;13.722;2022-08-30T01:32:43;10.02;;;7.63;;
48263;SDS011;34086;51.076;13.722;2022-08-30T01:33:45;8.73;;;7.25;;
48263;SDS011;34086;51.076;13.722;2022-08-30T01:34:50;10.80;;;7.30;;
48263;SDS011;34086;51.076;13.722;2022-08-30T01:35:55;11.43;;;7.70;;
48263;SDS011;34086;51.076;13.722;2022-08-30T01:37:01;11.82;;;7.88;;
48263;SDS011;34086;51.076;13.722;2022-08-30T01:38:03;10.88;;;7.78;;
48263;SDS011;34086;51.076;13.722;2022-08-30T01:39:04;10.20;;;7.65;;
48263;SDS011;34086;51.076;13.722;2022-08-30T01:40:06;9.82;;;7.43;;
48263;SDS011;34086;51.076;13.722;2022-08-30T01:42:19;10.68;;;7.72;;
48263;SDS011;34086;51.076;13.722;2022-08-30T01:43:21;12.68;;;7.93;;
48263;SDS011;34086;51.076;13.722;2022-08-30T01:44:21;9.18;;;7.88;;
48263;SDS011;34086;51.076;13.722;2022-08-30T01:45:22;11.70;;;8.07;;
48263;SDS011;34086;51.076;13.722;2022-08-30T01:46:24;11.40;;;8.30;;
48263;SDS011;34086;51.076;13.722;2022-08-30T01:47:29;10.13;;;8.10;;
48263;SDS011;34086;51.076;13.722;2022-08-30T01:48:30;11.25;;;7.88;;
48263;SDS011;34086;51.076;13.722;2022-08-30T01:49:31;10.88;;;8.15;;
48263;SDS011;34086;51.076;13.722;2022-08-30T01:50:32;11.20;;;8.18;;
48263;SDS011;34086;51.076;13.722;2022-08-30T01:51:33;10.07;;;7.78;;
48263;SDS011;34086;51.076;13.722;2022-08-30T01:52:34;11.65;;;8.10;;
48263;SDS011;34086;51.076;13.722;2022-08-30T01:53:34;10.32;;;8.20;;
48263;SDS011;34086;51.076;13.722;2022-08-30T01:54:36;10.48;;;8.50;;
48263;SDS011;34086;51.076;13.722;2022-08-30T01:55:38;12.38;;;8.57;;
48263;SDS011;34086;51.076;13.722;2022-08-30T01:56:39;11.45;;;8.45;;
48263;SDS011;34086;51.076;13.722;2022-08-30T01:57:40;11.02;;;8.20;;
48263;SDS011;34086;51.076;13.722;2022-08-30T01:58:41;10.20;;;7.90;;
48263;SDS011;34086;51.076;13.722;2022-08-30T01:59:45;10.07;;;8.10;;
48263;SDS011;34086;51.076;13.722;2022-08-30T02:00:49;10.80;;;8.57;;
48263;SDS011;34086;51.076;13.722;2022-08-30T02:01:50;11.80;;;8.48;;
48263;SDS011;34086;51.076;13.722;2022-08-30T02:02:51;13.15;;;9.00;;
48263;SDS011;34086;51.076;13.722;2022-08-30T02:03:51;12.00;;;8.93;;
48263;SDS011;34086;51.076;13.722;2022-08-30T02:04:55;11.02;;;8.60;;
48263;SDS011;34086;51.076;13.722;2022-08-30T02:05:56;10.30;;;8.57;;
48263;SDS011;34086;51.076;13.722;2022-08-30T02:06:57;12.90;;;8.85;;
48263;SDS011;34086;51.076;13.722;2022-08-30T02:07:58;10.25;;;8.52;;
48263;SDS011;34086;51.076;13.722;2022-08-30T02:08:58;10.20;;;8.80;;
48263;SDS011;34086;51.076;13.722;2022-08-30T02:09:59;11.77;;;9.00;;
48263;SDS011;34086;51.076;13.722;2022-08-30T02:11:00;11.98;;;9.02;;
48263;SDS011;34086;51.076;13.722;2022-08-30T02:12:02;11.77;;;8.98;;
48263;SDS011;34086;51.076;13.722;2022-08-30T02:13:05;12.05;;;8.60;;
48263;SDS011;34086;51.076;13.722;2022-08-30T02:14:05;9.75;;;8.57;;
48263;SDS011;34086;51.076;13.722;2022-08-30T02:15:06;11.88;;;8.88;;
48263;SDS011;34086;51.076;13.722;2022-08-30T02:16:10;13.65;;;9.13;;
48263;SDS011;34086;51.076;13.722;2022-08-30T02:17:13;12.00;;;9.27;;
48263;SDS011;34086;51.076;13.722;2022-08-30T02:18:16;9.40;;;8.30;;
48263;SDS011;34086;51.076;13.722;2022-08-30T02:19:17;11.95;;;8.77;;
48263;SDS011;34086;51.076;13.722;2022-08-30T02:20:17;12.93;;;8.80;;
48263;SDS011;34086;51.076;13.722;2022-08-30T02:21:19;11.98;;;8.55;;
48263;SDS011;34086;51.076;13.722;2022-08-30T02:22:20;10.13;;;8.38;;
48263;SDS011;34086;51.076;13.722;2022-08-30T02:23:20;10.32;;;8.23;;
48263;SDS011;34086;51.076;13.722;2022-08-30T02:24:21;12.02;;;8.48;;
48263;SDS011;34086;51.076;13.722;2022-08-30T02:25:22;10.45;;;8.48;;
48263;SDS011;34086;51.076;13.722;2022-08-30T02:26:22;12.20;;;8.93;;
48263;SDS011;34086;51.076;13.722;2022-08-30T02:27:23;11.27;;;9.00;;
48263;SDS011;34086;51.076;13.722;2022-08-30T02:28:25;9.85;;;8.40;;
48263;SDS011;34086;51.076;13.722;2022-08-30T02:29:26;10.63;;;7.95;;
48263;SDS011;34086;51.076;13.722;2022-08-30T02:30:27;10.10;;;8.32;;
48263;SDS011;34086;51.076;13.722;2022-08-30T02:31:27;10.38;;;8.70;;
48263;SDS011;34086;51.076;13.722;2022-08-30T02:32:28;10.20;;;8.13;;
48263;SDS011;34086;51.076;13.722;2022-08-30T02:33:29;10.63;;;8.50;;
48263;SDS011;34086;51.076;13.722;2022-08-30T02:34:30;11.45;;;8.40;;
48263;SDS011;34086;51.076;13.722;2022-08-30T02:35:31;10.65;;;8.40;;
48263;SDS011;34086;51.076;13.722;2022-08-30T02:36:32;9.23;;;8.20;;
48263;SDS011;34086;51.076;13.722;2022-08-30T02:37:32;10.60;;;8.40;;
48263;SDS011;34086;51.076;13.722;2022-08-30T02:38:33;11.20;;;8.20;;
48263;SDS011;34086;51.076;13.722;2022-08-30T02:39:34;10.13;;;7.85;;
48263;SDS011;34086;51.076;13.722;2022-08-30T02:40:35;8.98;;;7.65;;
48263;SDS011;34086;51.076;13.722;2022-08-30T02:41:36;11.18;;;8.32;;
48263;SDS011;34086;51.076;13.722;2022-08-30T02:42:38;9.85;;;8.10;;
48263;SDS011;34086;51.076;13.722;2022-08-30T02:43:40;10.15;;;8.07;;
48263;SDS011;34086;51.076;13.722;2022-08-30T02:44:41;10.60;;;8.07;;
48263;SDS011;34086;51.076;13.722;2022-08-30T02:45:42;10.35;;;8.02;;
48263;SDS011;34086;51.076;13.722;2022-08-30T02:46:42;10.93;;;8.07;;
48263;SDS011;34086;51.076;13.722;2022-08-30T02:47:44;11.18;;;8.23;;
48263;SDS011;34086;51.076;13.722;2022-08-30T02:48:45;11.25;;;8.23;;
48263;SDS011;34086;51.076;13.722;2022-08-30T02:49:45;11.93;;;7.88;;
48263;SDS011;34086;51.076;13.722;2022-08-30T02:50:47;9.82;;;7.97;;
48263;SDS011;34086;51.076;13.722;2022-08-30T02:51:49;10.48;;;8.27;;
48263;SDS011;34086;51.076;13.722;2022-08-30T02:52:50;10.73;;;7.90;;
48263;SDS011;34086;51.076;13.722;2022-08-30T02:53:51;11.35;;;8.40;;
48263;SDS011;34086;51.076;13.722;2022-08-30T02:54:52;11.07;;;8.13;;
48263;SDS011;34086;51.076;13.722;2022-08-30T02:55:53;10.52;;;8.43;;
48263;SDS011;34086;51.076;13.722;2022-08-30T02:56:54;11.00;;;8.20;;
48263;SDS011;34086;51.076;13.722;2022-08-30T02:57:56;12.15;;;8.35;;
48263;SDS011;34086;51.076;13.722;2022-08-30T02:58:57;8.95;;;7.80;;
48263;SDS011;34086;51.076;13.722;2022-08-30T02:59:58;10.55;;;7.88;;
48263;SDS011;34086;51.076;13.722;2022-08-30T03:00:59;11.40;;;8.20;;
48263;SDS011;34086;51.076;13.722;2022-08-30T03:02:00;9.07;;;7.68;;
48263;SDS011;34086;51.076;13.722;2022-08-30T03:03:01;10.75;;;7.82;;
48263;SDS011;34086;51.076;13.722;2022-08-30T03:04:06;10.57;;;7.85;;
48263;SDS011;34086;51.076;13.722;2022-08-30T03:05:09;10.13;;;7.78;;
48263;SDS011;34086;51.076;13.722;2022-08-30T03:06:12;9.23;;;7.45;;
48263;SDS011;34086;51.076;13.722;2022-08-30T03:07:13;9.45;;;7.85;;
48263;SDS011;34086;51.076;13.722;2022-08-30T03:08:15;10.65;;;8.00;;
48263;SDS011;34086;51.076;13.722;2022-08-30T03:09:15;12.40;;;8.25;;
48263;SDS011;34086;51.076;13.722;2022-08-30T03:10:17;10.82;;;8.35;;
48263;SDS011;34086;51.076;13.722;2022-08-30T03:11:17;10.13;;;8.60;;
48263;SDS011;34086;51.076;13.722;2022-08-30T03:12:18;10.80;;;8.30;;
48263;SDS011;34086;51.076;13.722;2022-08-30T03:13:19;10.70;;;8.10;;
48263;SDS011;34086;51.076;13.722;2022-08-30T03:14:20;11.40;;;8.23;;
48263;SDS011;34086;51.076;13.722;2022-08-30T03:15:21;9.45;;;8.25;;
48263;SDS011;34086;51.076;13.722;2022-08-30T03:16:24;11.13;;;8.05;;
48263;SDS011;34086;51.076;13.722;2022-08-30T03:17:25;11.10;;;7.90;;
48263;SDS011;34086;51.076;13.722;2022-08-30T03:18:25;10.88;;;8.13;;
48263;SDS011;34086;51.076;13.722;2022-08-30T03:19:27;9.50;;;7.97;;
48263;SDS011;34086;51.076;13.722;2022-08-30T03:20:28;10.98;;;8.00;;
48263;SDS011;34086;51.076;13.722;2022-08-30T03:21:29;10.43;;;7.97;;
48263;SDS011;34086;51.076;13.722;2022-08-30T03:22:30;10.55;;;8.25;;
48263;SDS011;34086;51.076;13.722;2022-08-30T03:23:31;9.73;;;8.38;;
48263;SDS011;34086;51.076;13.722;2022-08-30T03:24:32;10.65;;;8.23;;
48263;SDS011;34086;51.076;13.722;2022-08-30T03:25:36;8.32;;;7.50;;
48263;SDS011;34086;51.076;13.722;2022-08-30T03:26:38;10.10;;;7.78;;
48263;SDS011;34086;51.076;13.722;2022-08-30T03:27:39;10.75;;;7.78;;
48263;SDS011;34086;51.076;13.722;2022-08-30T03:28:40;9.07;;;7.53;;
48263;SDS011;34086;51.076;13.722;2022-08-30T03:29:42;8.55;;;7.43;;
48263;SDS011;34086;51.076;13.722;2022-08-30T03:30:43;10.65;;;8.05;;
48263;SDS011;34086;51.076;13.722;2022-08-30T03:31:44;9.35;;;8.35;;
48263;SDS011;34086;51.076;13.722;2022-08-30T03:32:48;10.73;;;7.90;;
48263;SDS011;34086;51.076;13.722;2022-08-30T03:33:49;9.80;;;7.97;;
48263;SDS011;34086;51.076;13.722;2022-08-30T03:34:49;9.07;;;7.82;;
48263;SDS011;34086;51.076;13.722;2022-08-30T03:35:59;9.82;;;7.97;;
48263;SDS011;34086;51.076;13.722;2022-08-30T03:37:00;10.93;;;8.73;;
48263;SDS011;34086;51.076;13.722;2022-08-30T03:38:01;11.52;;;8.40;;
48263;SDS011;34086;51.076;13.722;2022-08-30T03:39:11;11.10;;;8.13;;
48263;SDS011;34086;51.076;13.722;2022-08-30T03:40:13;10.43;;;8.23;;
48263;SDS011;34086;51.076;13.722;2022-08-30T03:41:16;10.23;;;8.10;;
48263;SDS011;34086;51.076;13.722;2022-08-30T03:42:17;10.93;;;8.80;;
48263;SDS011;34086;51.076;13.722;2022-08-30T03:43:20;10.60;;;8.38;;
48263;SDS011;34086;51.076;13.722;2022-08-30T03:44:21;9.73;;;8.27;;
48263;SDS011;34086;51.076;13.722;2022-08-30T03:45:22;10.45;;;8.05;;
48263;SDS011;34086;51.076;13.722;2022-08-30T03:46:23;10.23;;;8.32;;
48263;SDS011;34086;51.076;13.722;2022-08-30T03:47:24;9.18;;;7.68;;
48263;SDS011;34086;51.076;13.722;2022-08-30T03:48:27;11.48;;;8.38;;
48263;SDS011;34086;51.076;13.722;2022-08-30T03:49:28;11.65;;;7.88;;
48263;SDS011;34086;51.076;13.722;2022-08-30T03:50:29;9.77;;;7.93;;
48263;SDS011;34086;51.076;13.722;2022-08-30T03:51:30;10.48;;;8.25;;
48263;SDS011;34086;51.076;13.722;2022-08-30T03:52:32;10.88;;;7.85;;
48263;SDS011;34086;51.076;13.722;2022-08-30T03:53:33;9.32;;;7.57;;
48263;SDS011;34086;51.076;13.722;2022-08-30T03:54:34;9.95;;;8.05;;
48263;SDS011;34086;51.076;13.722;2022-08-30T03:55:34;9.52;;;8.27;;
48263;SDS011;34086;51.076;13.722;2022-08-30T03:56:35;9.65;;;8.10;;
48263;SDS011;34086;51.076;13.722;2022-08-30T03:57:36;10.27;;;8.20;;
48263;SDS011;34086;51.076;13.722;2022-08-30T03:58:38;10.15;;;8.20;;
48263;SDS011;34086;51.076;13.722;2022-08-30T03:59:39;10.88;;;8.35;;
48263;SDS011;34086;51.076;13.722;2022-08-30T04:00:43;11.82;;;8.32;;
48263;SDS011;34086;51.076;13.722;2022-08-30T04:01:44;11.73;;;8.65;;
48263;SDS011;34086;51.076;13.722;2022-08-30T04:02:46;10.73;;;8.63;;
48263;SDS011;34086;51.076;13.722;2022-08-30T04:03:47;14.00;;;8.45;;
48263;SDS011;34086;51.076;13.722;2022-08-30T04:04:48;12.00;;;8.60;;
48263;SDS011;34086;51.076;13.722;2022-08-30T04:05:49;10.13;;;8.45;;
48263;SDS011;34086;51.076;13.722;2022-08-30T04:06:50;12.32;;;9.43;;
48263;SDS011;34086;51.076;13.722;2022-08-30T04:07:51;12.20;;;9.10;;
48263;SDS011;34086;51.076;13.722;2022-08-30T04:08:52;10.43;;;8.88;;
48263;SDS011;34086;51.076;13.722;2022-08-30T04:09:54;12.25;;;9.05;;
48263;SDS011;34086;51.076;13.722;2022-08-30T04:10:54;11.70;;;9.27;;
48263;SDS011;34086;51.076;13.722;2022-08-30T04:11:55;11.60;;;8.60;;
48263;SDS011;34086;51.076;13.722;2022-08-30T04:12:56;10.00;;;8.30;;
48263;SDS011;34086;51.076;13.722;2022-08-30T04:13:56;11.57;;;8.50;;
48263;SDS011;34086;51.076;13.722;2022-08-30T04:14:57;9.23;;;7.85;;
48263;SDS011;34086;51.076;13.722;2022-08-30T04:15:58;9.13;;;7.60;;
48263;SDS011;34086;51.076;13.722;2022-08-30T04:16:58;9.25;;;7.88;;
48263;SDS011;34086;51.076;13.722;2022-08-30T04:17:59;11.50;;;8.15;;
48263;SDS011;34086;51.076;13.722;2022-08-30T04:19:00;10.73;;;8.27;;
48263;SDS011;34086;51.076;13.722;2022-08-30T04:20:01;10.25;;;8.55;;
48263;SDS011;34086;51.076;13.722;2022-08-30T04:21:02;11.13;;;8.40;;
48263;SDS011;34086;51.076;13.722;2022-08-30T04:22:04;11.95;;;7.90;;
48263;SDS011;34086;51.076;13.722;2022-08-30T04:23:05;9.75;;;7.97;;
48263;SDS011;34086;51.076;13.722;2022-08-30T04:24:09;11.35;;;7.80;;
48263;SDS011;34086;51.076;13.722;2022-08-30T04:25:20;10.38;;;7.85;;
48263;SDS011;34086;51.076;13.722;2022-08-30T04:26:21;10.93;;;8.00;;
48263;SDS011;34086;51.076;13.722;2022-08-30T04:27:22;9.77;;;8.18;;
48263;SDS011;34086;51.076;13.722;2022-08-30T04:28:23;9.57;;;7.90;;
48263;SDS011;34086;51.076;13.722;2022-08-30T04:29:27;9.73;;;8.20;;
48263;SDS011;34086;51.076;13.722;2022-08-30T04:30:28;11.52;;;8.32;;
48263;SDS011;34086;51.076;13.722;2022-08-30T04:31:32;13.40;;;8.27;;
48263;SDS011;34086;51.076;13.722;2022-08-30T04:32:34;10.90;;;8.57;;
48263;SDS011;34086;51.076;13.722;2022-08-30T04:33:35;11.20;;;8.30;;
48263;SDS011;34086;51.076;13.722;2022-08-30T04:34:36;10.60;;;8.38;;
48263;SDS011;34086;51.076;13.722;2022-08-30T04:35:39;10.65;;;8.23;;
48263;SDS011;34086;51.076;13.722;2022-08-30T04:36:41;11.65;;;8.63;;
48263;SDS011;34086;51.076;13.722;2022-08-30T04:37:42;11.95;;;8.45;;
48263;SDS011;34086;51.076;13.722;2022-08-30T04:38:43;10.20;;;8.10;;
48263;SDS011;34086;51.076;13.722;2022-08-30T04:39:43;11.30;;;8.32;;
48263;SDS011;34086;51.076;13.722;2022-08-30T04:40:45;11.25;;;7.97;;
48263;SDS011;34086;51.076;13.722;2022-08-30T04:41:49;11.02;;;8.65;;
48263;SDS011;34086;51.076;13.722;2022-08-30T04:42:50;12.80;;;8.40;;
48263;SDS011;34086;51.076;13.722;2022-08-30T04:43:53;10.00;;;7.97;;
48263;SDS011;34086;51.076;13.722;2022-08-30T04:44:54;10.50;;;8.27;;
48263;SDS011;34086;51.076;13.722;2022-08-30T04:45:55;10.95;;;8.45;;
48263;SDS011;34086;51.076;13.722;2022-08-30T04:47:07;10.73;;;8.68;;
48263;SDS011;34086;51.076;13.722;2022-08-30T04:48:08;10.13;;;8.30;;
48263;SDS011;34086;51.076;13.722;2022-08-30T04:49:09;10.10;;;8.10;;
48263;SDS011;34086;51.076;13.722;2022-08-30T04:50:12;9.73;;;7.47;;
48263;SDS011;34086;51.076;13.722;2022-08-30T04:51:16;11.68;;;8.18;;
48263;SDS011;34086;51.076;13.722;2022-08-30T04:52:17;11.85;;;8.00;;
48263;SDS011;34086;51.076;13.722;2022-08-30T04:53:18;10.50;;;8.18;;
48263;SDS011;34086;51.076;13.722;2022-08-30T04:54:19;8.63;;;7.72;;
48263;SDS011;34086;51.076;13.722;2022-08-30T04:55:19;12.55;;;8.00;;
48263;SDS011;34086;51.076;13.722;2022-08-30T04:56:21;10.35;;;7.50;;
48263;SDS011;34086;51.076;13.722;2022-08-30T04:57:23;10.15;;;8.23;;
48263;SDS011;34086;51.076;13.722;2022-08-30T04:58:25;10.57;;;8.27;;
48263;SDS011;34086;51.076;13.722;2022-08-30T04:59:26;9.98;;;7.65;;
48263;SDS011;34086;51.076;13.722;2022-08-30T05:00:27;9.68;;;7.68;;
48263;SDS011;34086;51.076;13.722;2022-08-30T05:01:31;8.82;;;7.40;;
48263;SDS011;34086;51.076;13.722;2022-08-30T05:02:32;12.35;;;8.50;;
48263;SDS011;34086;51.076;13.722;2022-08-30T05:03:33;9.02;;;7.40;;
48263;SDS011;34086;51.076;13.722;2022-08-30T05:04:34;8.57;;;7.50;;
48263;SDS011;34086;51.076;13.722;2022-08-30T05:05:35;10.57;;;7.88;;
48263;SDS011;34086;51.076;13.722;2022-08-30T05:06:39;9.82;;;8.32;;
48263;SDS011;34086;51.076;13.722;2022-08-30T05:07:40;10.57;;;8.85;;
48263;SDS011;34086;51.076;13.722;2022-08-30T05:08:40;11.70;;;8.73;;
48263;SDS011;34086;51.076;13.722;2022-08-30T05:09:41;10.90;;;8.38;;
48263;SDS011;34086;51.076;13.722;2022-08-30T05:10:44;9.05;;;7.50;;
48263;SDS011;34086;51.076;13.722;2022-08-30T05:11:46;9.35;;;7.78;;
48263;SDS011;34086;51.076;13.722;2022-08-30T05:12:46;8.93;;;7.40;;
48263;SDS011;34086;51.076;13.722;2022-08-30T05:13:47;8.85;;;7.10;;
48263;SDS011;34086;51.076;13.722;2022-08-30T05:14:49;10.13;;;7.30;;
48263;SDS011;34086;51.076;13.722;2022-08-30T05:15:50;9.95;;;7.03;;
48263;SDS011;34086;51.076;13.722;2022-08-30T05:16:50;10.52;;;7.45;;
48263;SDS011;34086;51.076;13.722;2022-08-30T05:17:51;8.00;;;6.60;;
48263;SDS011;34086;51.076;13.722;2022-08-30T05:18:52;10.13;;;7.10;;
48263;SDS011;34086;51.076;13.722;2022-08-30T05:19:53;9.32;;;6.60;;
48263;SDS011;34086;51.076;13.722;2022-08-30T05:21:09;11.70;;;6.68;;
48263;SDS011;34086;51.076;13.722;2022-08-30T05:22:11;7.70;;;6.30;;
48263;SDS011;34086;51.076;13.722;2022-08-30T05:23:12;8.63;;;6.28;;
48263;SDS011;34086;51.076;13.722;2022-08-30T05:24:13;8.77;;;6.60;;
48263;SDS011;34086;51.076;13.722;2022-08-30T05:25:14;11.60;;;6.28;;
48263;SDS011;34086;51.076;13.722;2022-08-30T05:26:20;6.95;;;6.03;;
48263;SDS011;34086;51.076;13.722;2022-08-30T05:27:28;8.80;;;6.47;;
48263;SDS011;34086;51.076;13.722;2022-08-30T05:28:29;10.00;;;6.47;;
48263;SDS011;34086;51.076;13.722;2022-08-30T05:29:30;7.40;;;6.00;;
48263;SDS011;34086;51.076;13.722;2022-08-30T05:30:32;10.25;;;6.00;;
48263;SDS011;34086;51.076;13.722;2022-08-30T05:31:35;6.90;;;6.20;;
48263;SDS011;34086;51.076;13.722;2022-08-30T05:32:36;8.68;;;6.40;;
48263;SDS011;34086;51.076;13.722;2022-08-30T05:33:37;8.32;;;6.43;;
48263;SDS011;34086;51.076;13.722;2022-08-30T05:34:37;8.88;;;6.65;;
48263;SDS011;34086;51.076;13.722;2022-08-30T05:35:38;8.77;;;6.90;;
48263;SDS011;34086;51.076;13.722;2022-08-30T05:36:39;10.43;;;7.15;;
48263;SDS011;34086;51.076;13.722;2022-08-30T05:37:40;10.20;;;6.63;;
48263;SDS011;34086;51.076;13.722;2022-08-30T05:38:42;8.23;;;6.80;;
48263;SDS011;34086;51.076;13.722;2022-08-30T05:39:42;8.93;;;7.32;;
48263;SDS011;34086;51.076;13.722;2022-08-30T05:40:46;8.88;;;7.50;;
48263;SDS011;34086;51.076;13.722;2022-08-30T05:41:46;8.70;;;6.95;;
48263;SDS011;34086;51.076;13.722;2022-08-30T05:42:47;9.27;;;6.70;;
48263;SDS011;34086;51.076;13.722;2022-08-30T05:43:48;8.65;;;6.88;;
48263;SDS011;34086;51.076;13.722;2022-08-30T05:44:55;10.57;;;6.75;;
48263;SDS011;34086;51.076;13.722;2022-08-30T05:45:59;9.38;;;7.28;;
48263;SDS011;34086;51.076;13.722;2022-08-30T05:47:01;11.30;;;7.10;;
48263;SDS011;34086;51.076;13.722;2022-08-30T05:48:02;8.57;;;7.05;;
48263;SDS011;34086;51.076;13.722;2022-08-30T05:49:04;9.85;;;6.80;;
48263;SDS011;34086;51.076;13.722;2022-08-30T05:50:06;9.60;;;6.97;;
48263;SDS011;34086;51.076;13.722;2022-08-30T05:51:15;9.55;;;6.85;;
48263;SDS011;34086;51.076;13.722;2022-08-30T05:52:20;10.93;;;7.00;;
48263;SDS011;34086;51.076;13.722;2022-08-30T05:53:21;8.65;;;6.70;;
48263;SDS011;34086;51.076;13.722;2022-08-30T05:54:23;9.15;;;6.88;;
48263;SDS011;34086;51.076;13.722;2022-08-30T05:55:24;10.73;;;7.03;;
48263;SDS011;34086;51.076;13.722;2022-08-30T05:56:26;8.25;;;6.78;;
48263;SDS011;34086;51.076;13.722;2022-08-30T05:57:31;8.32;;;6.50;;
48263;SDS011;34086;51.076;13.722;2022-08-30T05:58:33;9.57;;;6.80;;
48263;SDS011;34086;51.076;13.722;2022-08-30T05:59:34;7.78;;;6.97;;
48263;SDS011;34086;51.076;13.722;2022-08-30T06:00:34;8.93;;;6.75;;
48263;SDS011;34086;51.076;13.722;2022-08-30T06:01:38;9.82;;;7.25;;
48263;SDS011;34086;51.076;13.722;2022-08-30T06:02:43;10.73;;;6.88;;
48263;SDS011;34086;51.076;13.722;2022-08-30T06:03:50;10.30;;;6.90;;
48263;SDS011;34086;51.076;13.722;2022-08-30T06:04:52;9.85;;;6.70;;
48263;SDS011;34086;51.076;13.722;2022-08-30T06:05:53;10.23;;;7.55;;
48263;SDS011;34086;51.076;13.722;2022-08-30T06:06:54;10.52;;;7.40;;
48263;SDS011;34086;51.076;13.722;2022-08-30T06:07:54;9.90;;;7.03;;
48263;SDS011;34086;51.076;13.722;2022-08-30T06:08:55;9.05;;;7.30;;
48263;SDS011;34086;51.076;13.722;2022-08-30T06:09:56;12.32;;;6.88;;